createdAt,value
2023-05-10T00:02:05.343Z,100.00
2023-05-10T00:04:33.283Z,100.00
2023-05-10T00:07:01.220Z,100.00
2023-05-10T00:09:29.381Z,100.00
2023-05-10T00:11:57.298Z,100.00
2023-05-10T00:14:25.193Z,100.00
2023-05-10T00:16:53.254Z,100.00
2023-05-10T00:19:21.494Z,100.00
2023-05-10T00:21:49.529Z,100.00
2023-05-10T00:24:17.395Z,100.00
2023-05-10T00:26:45.256Z,100.00
2023-05-10T00:29:13.078Z,100.00
2023-05-10T00:31:40.913Z,100.00
2023-05-10T00:34:08.783Z,100.00
2023-05-10T00:36:36.658Z,100.00
2023-05-10T00:39:05.852Z,100.00
2023-05-10T00:41:35.055Z,100.00
2023-05-10T00:44:04.369Z,100.00
2023-05-10T00:46:32.774Z,100.00
2023-05-10T00:49:00.738Z,100.00
2023-05-10T00:51:28.765Z,100.00
2023-05-10T00:53:58.350Z,100.00
2023-05-10T00:56:27.551Z,100.00
2023-05-10T00:58:55.563Z,100.00
2023-05-10T01:01:23.689Z,100.00
2023-05-10T01:03:52.111Z,100.00
2023-05-10T01:06:20.049Z,100.00
2023-05-10T01:08:48.019Z,100.00
2023-05-10T01:11:16.162Z,100.00
2023-05-10T01:13:47.423Z,100.00
2023-05-10T01:16:15.812Z,100.00
2023-05-10T01:18:45.645Z,100.00
2023-05-10T01:21:46.934Z,100.00
2023-05-10T01:24:23.887Z,100.00
2023-05-10T01:26:57.519Z,100.00
2023-05-10T01:30:15.596Z,100.00
2023-05-10T01:33:08.141Z,100.00
2023-05-10T01:35:45.455Z,100.00
2023-05-10T01:38:15.926Z,100.00
2023-05-10T01:41:07.412Z,100.00
2023-05-10T01:43:42.426Z,100.00
2023-05-10T01:46:14.842Z,100.00
2023-05-10T01:48:49.576Z,100.00
2023-05-10T01:51:26.138Z,99.71
2023-05-10T01:54:03.118Z,99.82
2023-05-10T01:56:34.422Z,99.79
2023-05-10T01:59:06.205Z,99.77
2023-05-10T02:01:35.876Z,99.75
2023-05-10T02:04:05.305Z,99.51
2023-05-10T02:06:34.974Z,99.32
2023-05-10T02:09:03.996Z,99.13
2023-05-10T02:11:33.295Z,99.04
2023-05-10T02:14:02.687Z,98.94
2023-05-10T02:16:33.046Z,99.05
2023-05-10T02:19:03.781Z,98.84
2023-05-10T02:21:33.191Z,98.48
2023-05-10T02:24:04.116Z,98.77
2023-05-10T02:26:35.153Z,98.66
2023-05-10T02:29:05.588Z,98.11
2023-05-10T02:31:35.775Z,98.24
2023-05-10T02:34:05.946Z,98.13
2023-05-10T02:36:34.463Z,97.59
2023-05-10T02:39:04.267Z,97.91
2023-05-10T02:41:34.690Z,97.71
2023-05-10T02:44:05.208Z,97.37
2023-05-10T02:46:33.383Z,97.05
2023-05-10T02:49:01.481Z,97.17
2023-05-10T02:51:34.361Z,97.32
2023-05-10T02:54:10.396Z,97.22
2023-05-10T02:56:42.995Z,97.29
2023-05-10T02:59:10.963Z,96.71
2023-05-10T03:01:38.918Z,97.03
2023-05-10T03:04:07.034Z,97.10
2023-05-10T03:06:35.203Z,97.09
2023-05-10T03:09:04.782Z,97.12
2023-05-10T03:11:49.529Z,97.25
2023-05-10T03:14:32.620Z,97.76
2023-05-10T03:17:12.819Z,97.71
2023-05-10T03:19:58.654Z,97.58
2023-05-10T03:22:34.026Z,97.50
2023-05-10T03:25:06.863Z,97.83
2023-05-10T03:27:36.285Z,97.50
2023-05-10T03:30:05.042Z,97.66
2023-05-10T03:32:35.225Z,97.80
2023-05-10T03:35:04.558Z,97.78
2023-05-10T03:37:32.472Z,97.41
2023-05-10T03:40:00.379Z,97.38
2023-05-10T03:42:28.298Z,97.03
2023-05-10T03:44:56.670Z,97.20
2023-05-10T03:47:24.752Z,97.18
2023-05-10T03:49:52.636Z,96.98
2023-05-10T03:52:20.552Z,96.93
2023-05-10T03:54:48.418Z,96.92
2023-05-10T03:57:16.313Z,96.61
2023-05-10T03:59:44.177Z,96.56
2023-05-10T04:02:12.206Z,96.29
2023-05-10T04:04:40.188Z,96.35
2023-05-10T04:07:08.128Z,96.15
2023-05-10T04:09:36.059Z,95.60
2023-05-10T04:12:04.670Z,95.83
2023-05-10T04:14:32.617Z,95.77
2023-05-10T04:17:00.532Z,95.75
2023-05-10T04:19:32.543Z,95.65
2023-05-10T04:22:01.147Z,95.54
2023-05-10T04:24:29.054Z,95.50
2023-05-10T04:26:57.969Z,95.46
2023-05-10T04:29:25.983Z,95.53
2023-05-10T04:31:53.854Z,95.56
2023-05-10T04:34:23.354Z,95.37
2023-05-10T04:36:51.291Z,95.57
2023-05-10T04:39:19.162Z,95.48
2023-05-10T04:41:47.259Z,95.38
2023-05-10T04:44:15.744Z,95.59
2023-05-10T04:46:43.776Z,95.62
2023-05-10T04:49:11.764Z,95.69
2023-05-10T04:51:39.769Z,96.06
2023-05-10T04:54:07.854Z,95.86
2023-05-10T04:56:35.796Z,95.98
2023-05-10T04:59:03.802Z,96.02
2023-05-10T05:01:31.814Z,95.93
2023-05-10T05:04:01.565Z,95.84
2023-05-10T05:06:29.627Z,95.87
2023-05-10T05:08:57.548Z,95.67
2023-05-10T05:11:25.574Z,95.64
2023-05-10T05:13:53.869Z,95.26
2023-05-10T05:16:21.738Z,95.41
2023-05-10T05:18:49.609Z,95.30
2023-05-10T05:21:18.692Z,95.18
2023-05-10T05:23:47.086Z,94.53
2023-05-10T05:26:15.085Z,94.45
2023-05-10T05:28:42.980Z,93.80
2023-05-10T05:31:11.539Z,93.69
2023-05-10T05:33:40.507Z,93.53
2023-05-10T05:36:08.757Z,93.12
2023-05-10T05:38:36.676Z,93.20
2023-05-10T05:41:05.308Z,93.15
2023-05-10T05:43:33.222Z,92.64
2023-05-10T05:46:01.393Z,92.96
2023-05-10T05:48:29.282Z,92.55
2023-05-10T05:50:58.914Z,93.10
2023-05-10T05:53:26.885Z,93.11
2023-05-10T05:56:00.049Z,93.36
2023-05-10T05:58:28.357Z,93.46
2023-05-10T06:00:56.360Z,93.69
2023-05-10T06:03:24.356Z,93.51
2023-05-10T06:05:52.296Z,93.39
2023-05-10T06:08:20.198Z,93.51
2023-05-10T06:10:48.381Z,93.30
2023-05-10T06:13:16.276Z,93.42
2023-05-10T06:15:44.276Z,92.98
2023-05-10T06:18:12.302Z,93.40
2023-05-10T06:20:40.225Z,93.16
2023-05-10T06:23:08.262Z,93.03
2023-05-10T06:25:36.189Z,93.04
2023-05-10T06:28:04.390Z,92.70
2023-05-10T06:30:32.396Z,92.91
2023-05-10T06:33:00.508Z,92.95
2023-05-10T06:35:28.496Z,92.76
2023-05-10T06:37:57.089Z,92.62
2023-05-10T06:40:25.133Z,92.66
2023-05-10T06:42:53.544Z,92.57
2023-05-10T06:45:21.575Z,91.93
2023-05-10T06:47:49.589Z,91.97
2023-05-10T06:50:17.799Z,91.60
2023-05-10T06:52:45.919Z,91.15
2023-05-10T06:55:14.186Z,90.49
2023-05-10T06:57:42.370Z,90.89
2023-05-10T07:00:12.021Z,89.94
2023-05-10T07:02:39.995Z,88.93
2023-05-10T07:05:08.419Z,87.78
2023-05-10T07:07:36.581Z,89.27
2023-05-10T07:10:05.147Z,88.71
2023-05-10T07:12:33.368Z,87.84
2023-05-10T07:15:01.423Z,88.45
2023-05-10T07:17:29.423Z,88.78
2023-05-10T07:19:57.384Z,87.15
2023-05-10T07:22:25.294Z,87.22
2023-05-10T07:24:53.228Z,87.02
2023-05-10T07:27:21.148Z,87.18
2023-05-10T07:29:49.025Z,86.72
2023-05-10T07:32:16.933Z,85.24
2023-05-10T07:34:44.942Z,86.75
2023-05-10T07:37:12.779Z,85.98
2023-05-10T07:39:40.747Z,86.47
2023-05-10T07:42:08.614Z,85.87
2023-05-10T07:44:39.280Z,84.74
2023-05-10T07:47:07.146Z,84.05
2023-05-10T07:49:35.046Z,84.55
2023-05-10T07:52:02.985Z,84.03
2023-05-10T07:54:30.900Z,83.91
2023-05-10T07:56:58.830Z,83.99
2023-05-10T07:59:26.775Z,82.72
2023-05-10T08:01:54.745Z,82.43
2023-05-10T08:04:22.819Z,81.38
2023-05-10T08:06:50.882Z,80.77
2023-05-10T08:09:20.033Z,81.34
2023-05-10T08:11:47.960Z,81.38
2023-05-10T08:14:15.869Z,81.13
2023-05-10T08:16:43.715Z,80.41
2023-05-10T08:19:11.747Z,79.70
2023-05-10T08:21:39.807Z,80.46
2023-05-10T08:24:08.113Z,80.95
2023-05-10T08:26:36.087Z,82.80
2023-05-10T08:29:04.121Z,83.56
2023-05-10T08:31:32.189Z,84.96
2023-05-10T08:34:00.271Z,84.27
2023-05-10T08:36:28.811Z,85.25
2023-05-10T08:38:57.171Z,85.17
2023-05-10T08:41:26.858Z,85.56
2023-05-10T08:43:56.161Z,85.45
2023-05-10T08:46:25.284Z,85.38
2023-05-10T08:48:54.401Z,84.91
2023-05-10T08:51:29.013Z,84.53
2023-05-10T08:53:57.760Z,84.54
2023-05-10T08:56:26.436Z,84.14
2023-05-10T08:58:54.480Z,83.72
2023-05-10T09:01:23.663Z,83.65
2023-05-10T09:03:52.914Z,83.69
2023-05-10T09:06:21.062Z,83.67
2023-05-10T09:08:50.026Z,83.83
2023-05-10T09:11:18.788Z,83.57
2023-05-10T09:13:47.038Z,83.26
2023-05-10T09:18:48.209Z,82.72
2023-05-10T09:21:16.247Z,83.62
2023-05-10T09:23:49.121Z,83.96
2023-05-10T09:26:17.391Z,80.70
2023-05-10T09:28:56.754Z,82.51
2023-05-10T09:31:24.913Z,81.25
2023-05-10T09:33:53.744Z,80.84
2023-05-10T09:36:21.795Z,80.85
2023-05-10T09:38:54.908Z,80.56
2023-05-10T09:41:24.791Z,78.59
2023-05-10T09:43:57.466Z,79.53
2023-05-10T09:46:26.611Z,77.50
2023-05-10T09:48:54.527Z,77.49
2023-05-10T09:51:26.705Z,76.39
2023-05-10T09:54:15.607Z,75.76
2023-05-10T09:56:44.119Z,73.53
2023-05-10T09:59:13.979Z,71.41
2023-05-10T10:01:42.830Z,71.56
2023-05-10T10:04:12.002Z,69.83
2023-05-10T10:06:43.721Z,70.28
2023-05-10T10:09:11.982Z,71.61
2023-05-10T10:11:41.394Z,70.28
2023-05-10T10:14:09.214Z,70.94
2023-05-10T10:16:39.925Z,69.05
2023-05-10T10:19:14.969Z,69.51
2023-05-10T10:21:43.042Z,67.62
2023-05-10T10:24:10.908Z,64.70
2023-05-10T10:26:45.001Z,65.07
2023-05-10T10:29:25.750Z,63.88
2023-05-10T10:32:32.554Z,65.86
2023-05-10T10:35:01.472Z,66.39
2023-05-10T10:37:46.412Z,66.06
2023-05-10T10:40:35.142Z,65.75
2023-05-10T10:43:29.292Z,65.19
2023-05-10T10:46:17.605Z,65.23
2023-05-10T10:49:13.320Z,63.28
2023-05-10T10:51:42.118Z,61.64
2023-05-10T10:54:14.049Z,62.21
2023-05-10T10:56:41.914Z,62.48
2023-05-10T10:59:10.624Z,62.28
2023-05-10T11:01:38.829Z,62.84
2023-05-10T11:04:06.751Z,63.04
2023-05-10T11:06:36.562Z,63.50
2023-05-10T11:09:09.495Z,63.67
2023-05-10T11:11:57.738Z,63.34
2023-05-10T11:14:25.979Z,63.50
2023-05-10T11:16:54.232Z,64.33
2023-05-10T11:19:22.491Z,63.72
2023-05-10T11:22:13.678Z,63.55
2023-05-10T11:24:41.715Z,61.48
2023-05-10T11:27:10.142Z,61.94
2023-05-10T11:29:37.967Z,60.43
2023-05-10T11:32:10.399Z,61.31
2023-05-10T11:34:38.302Z,61.00
2023-05-10T11:37:06.247Z,61.49
2023-05-10T11:39:35.819Z,60.97
2023-05-10T11:42:03.722Z,61.76
2023-05-10T11:44:33.672Z,61.09
2023-05-10T11:47:05.380Z,61.63
2023-05-10T11:49:33.514Z,61.93
2023-05-10T11:52:09.414Z,61.96
2023-05-10T11:54:37.556Z,61.19
2023-05-10T11:57:06.281Z,62.05
2023-05-10T11:59:34.417Z,61.46
2023-05-10T12:02:02.719Z,61.11
2023-05-10T12:04:31.699Z,60.77
2023-05-10T12:06:59.792Z,60.75
2023-05-10T12:09:42.527Z,61.26
2023-05-10T12:12:12.198Z,60.97
2023-05-10T12:14:40.559Z,61.70
2023-05-10T12:17:08.505Z,61.84
2023-05-10T12:19:40.938Z,60.59
2023-05-10T12:22:08.867Z,60.82
2023-05-10T12:24:38.398Z,60.59
2023-05-10T12:27:13.121Z,60.79
2023-05-10T12:29:46.823Z,57.39
2023-05-10T12:32:14.823Z,56.33
2023-05-10T12:34:42.723Z,57.47
2023-05-10T12:37:10.632Z,54.58
2023-05-10T12:39:46.731Z,54.26
2023-05-10T12:42:14.714Z,54.07
2023-05-10T12:44:42.747Z,54.11
2023-05-10T12:47:10.829Z,54.03
2023-05-10T12:49:38.858Z,53.68
2023-05-10T12:52:06.833Z,54.70
2023-05-10T12:54:34.848Z,55.08
2023-05-10T12:57:02.731Z,54.91
2023-05-10T12:59:30.651Z,53.92
2023-05-10T13:01:59.838Z,54.37
2023-05-10T13:04:28.117Z,54.91
2023-05-10T13:06:58.476Z,53.85
2023-05-10T13:09:27.398Z,54.39
2023-05-10T13:11:58.203Z,54.57
2023-05-10T13:14:27.116Z,54.15
2023-05-10T13:16:55.253Z,54.01
2023-05-10T13:19:23.430Z,52.98
2023-05-10T13:21:51.789Z,52.31
2023-05-10T13:24:20.033Z,53.20
2023-05-10T13:26:47.929Z,53.93
2023-05-10T13:29:16.016Z,54.02
2023-05-10T13:31:44.025Z,53.90
2023-05-10T13:34:12.004Z,53.86
2023-05-10T13:36:40.546Z,53.54
2023-05-10T13:39:08.494Z,54.14
2023-05-10T13:41:36.414Z,53.42
2023-05-10T13:44:04.392Z,53.48
2023-05-10T13:46:33.324Z,54.12
2023-05-10T13:49:01.374Z,54.45
2023-05-10T13:51:29.313Z,53.30
2023-05-10T13:53:57.372Z,52.58
2023-05-10T13:56:25.319Z,51.05
2023-05-10T13:58:53.607Z,50.26
2023-05-10T14:01:21.793Z,50.91
2023-05-10T14:03:50.559Z,50.33
2023-05-10T14:06:18.564Z,50.30
2023-05-10T14:08:46.487Z,51.07
2023-05-10T14:11:15.286Z,50.78
2023-05-10T14:13:43.357Z,51.40
2023-05-10T14:16:11.296Z,51.77
2023-05-10T14:18:39.446Z,52.10
2023-05-10T14:21:07.764Z,52.27
2023-05-10T14:23:35.699Z,52.28
2023-05-10T14:26:03.800Z,52.30
2023-05-10T14:28:31.834Z,52.76
2023-05-10T14:31:00.292Z,52.96
2023-05-10T14:33:28.277Z,53.12
2023-05-10T14:35:59.114Z,52.91
2023-05-10T14:38:27.007Z,53.06
2023-05-10T14:40:54.985Z,51.26
2023-05-10T14:43:22.973Z,52.75
2023-05-10T14:45:51.001Z,53.09
2023-05-10T14:48:19.869Z,53.62
2023-05-10T14:50:48.356Z,52.81
2023-05-10T14:53:16.223Z,53.49
2023-05-10T14:55:44.141Z,51.82
2023-05-10T14:58:12.050Z,52.95
2023-05-10T15:00:40.084Z,52.22
2023-05-10T15:03:08.725Z,51.82
2023-05-10T15:05:36.950Z,52.81
2023-05-10T15:08:06.830Z,52.91
2023-05-10T15:10:35.331Z,53.26
2023-05-10T15:13:03.569Z,53.17
2023-05-10T15:15:31.546Z,53.46
2023-05-10T15:17:59.614Z,53.61
2023-05-10T15:20:27.616Z,53.75
2023-05-10T15:22:55.578Z,53.92
2023-05-10T15:25:23.824Z,54.17
2023-05-10T15:27:52.178Z,53.99
2023-05-10T15:30:20.112Z,54.16
2023-05-10T15:32:47.966Z,54.86
2023-05-10T15:35:16.723Z,55.22
2023-05-10T15:37:44.713Z,55.67
2023-05-10T15:40:12.996Z,56.09
2023-05-10T15:42:40.907Z,56.45
2023-05-10T15:45:09.445Z,56.71
2023-05-10T15:47:37.331Z,57.23
2023-05-10T15:50:05.744Z,57.62
2023-05-10T15:52:33.685Z,58.26
2023-05-10T15:55:01.663Z,58.97
2023-05-10T15:57:29.720Z,59.71
2023-05-10T15:59:57.682Z,60.67
2023-05-10T16:02:25.761Z,61.13
2023-05-10T16:04:53.732Z,61.56
2023-05-10T16:07:21.673Z,61.93
2023-05-10T16:09:50.877Z,62.28
2023-05-10T16:12:18.834Z,62.52
2023-05-10T16:14:48.204Z,62.83
2023-05-10T16:17:19.345Z,63.36
2023-05-10T16:19:48.281Z,63.48
2023-05-10T16:22:16.416Z,63.74
2023-05-10T16:24:44.364Z,63.99
2023-05-10T16:27:13.932Z,64.31
2023-05-10T16:29:41.978Z,64.32
2023-05-10T16:32:09.878Z,64.23
2023-05-10T16:34:37.953Z,64.27
2023-05-10T16:37:05.882Z,64.36
2023-05-10T16:39:33.866Z,64.49
2023-05-10T16:42:02.471Z,64.65
2023-05-10T16:44:30.476Z,65.05
2023-05-10T16:46:58.631Z,64.68
2023-05-10T16:49:27.725Z,64.65
2023-05-10T16:51:55.775Z,64.26
2023-05-10T16:54:24.141Z,64.15
2023-05-10T16:56:52.328Z,64.17
2023-05-10T16:59:20.203Z,64.25
2023-05-10T17:01:48.372Z,64.20
2023-05-10T17:04:17.978Z,64.00
2023-05-10T17:06:45.957Z,63.90
2023-05-10T17:09:13.930Z,64.14
2023-05-10T17:11:44.672Z,64.57
2023-05-10T17:14:12.789Z,64.76
2023-05-10T17:16:40.718Z,64.93
2023-05-10T17:19:09.587Z,65.08
2023-05-10T17:21:38.069Z,65.18
2023-05-10T17:24:06.297Z,65.50
2023-05-10T17:26:35.936Z,65.92
2023-05-10T17:29:03.793Z,66.17
2023-05-10T17:31:31.692Z,66.53
2023-05-10T17:33:59.798Z,66.94
2023-05-10T17:36:27.893Z,67.35
2023-05-10T17:38:55.988Z,67.71
2023-05-10T17:41:24.648Z,67.91
2023-05-10T17:43:52.673Z,68.11
2023-05-10T17:46:20.858Z,68.18
2023-05-10T17:48:49.016Z,68.10
2023-05-10T17:51:17.039Z,68.05
2023-05-10T17:53:46.029Z,68.12
2023-05-10T17:56:13.961Z,68.15
2023-05-10T17:58:41.961Z,68.15
2023-05-10T18:01:09.928Z,68.19
2023-05-10T18:03:37.967Z,68.23
2023-05-10T18:06:06.144Z,68.31
2023-05-10T18:08:34.470Z,68.48
2023-05-10T18:11:02.784Z,68.62
2023-05-10T18:13:30.814Z,68.58
2023-05-10T18:15:58.737Z,68.43
2023-05-10T18:18:26.927Z,68.52
2023-05-10T18:20:58.160Z,68.52
2023-05-10T18:23:26.349Z,68.42
2023-05-10T18:25:54.515Z,68.36
2023-05-10T18:28:22.456Z,68.27
2023-05-10T18:30:50.515Z,68.24
2023-05-10T18:33:18.465Z,68.23
2023-05-10T18:35:46.495Z,68.20
2023-05-10T18:38:15.096Z,68.26
2023-05-10T18:40:43.222Z,68.54
2023-05-10T18:43:11.273Z,70.02
2023-05-10T18:45:40.476Z,71.42
2023-05-10T18:48:09.196Z,75.02
2023-05-10T18:50:37.210Z,74.48
2023-05-10T18:53:05.152Z,76.15
2023-05-10T18:55:33.093Z,78.19
2023-05-10T18:58:01.696Z,77.46
2023-05-10T19:00:29.669Z,77.52
2023-05-10T19:02:57.643Z,77.94
2023-05-10T19:05:31.183Z,78.56
2023-05-10T19:07:59.088Z,79.39
2023-05-10T19:10:26.987Z,80.08
2023-05-10T19:12:55.078Z,80.67
2023-05-10T19:15:23.191Z,81.32
2023-05-10T19:17:51.484Z,81.71
2023-05-10T19:20:19.534Z,81.97
2023-05-10T19:25:25.733Z,82.82
2023-05-10T19:27:55.696Z,82.95
2023-05-10T19:30:24.470Z,82.78
2023-05-10T19:32:52.602Z,82.59
2023-05-10T19:35:20.675Z,82.84
2023-05-10T19:37:48.839Z,82.76
2023-05-10T19:40:17.257Z,82.56
2023-05-10T19:42:45.295Z,82.65
2023-05-10T19:45:13.626Z,82.87
2023-05-10T19:47:43.211Z,82.48
2023-05-10T19:50:11.359Z,82.05
2023-05-10T19:52:39.255Z,81.56
2023-05-10T19:55:07.738Z,81.48
2023-05-10T19:57:35.641Z,81.61
2023-05-10T20:00:03.815Z,81.58
2023-05-10T20:02:31.883Z,82.18
2023-05-10T20:04:59.891Z,81.75
2023-05-10T20:07:27.869Z,81.70
2023-05-10T20:09:56.140Z,82.28
2023-05-10T20:12:24.265Z,81.67
2023-05-10T20:14:52.226Z,81.64
2023-05-10T20:17:20.148Z,81.60
2023-05-10T20:19:48.574Z,81.60
2023-05-10T20:22:16.493Z,81.51
2023-05-10T20:24:44.504Z,81.66
2023-05-10T20:27:12.454Z,81.64
2023-05-10T20:29:40.444Z,81.53
2023-05-10T20:32:08.512Z,81.46
2023-05-10T20:34:36.896Z,81.59
2023-05-10T20:37:05.048Z,81.46
2023-05-10T20:39:33.001Z,81.43
2023-05-10T20:42:01.116Z,81.45
2023-05-10T20:44:28.992Z,81.34
2023-05-10T20:46:57.016Z,81.38
2023-05-10T20:49:25.053Z,81.42
2023-05-10T20:51:53.061Z,81.40
2023-05-10T20:54:21.693Z,81.25
2023-05-10T20:56:49.586Z,81.23
2023-05-10T20:59:17.523Z,81.17
2023-05-10T21:01:46.588Z,81.13
2023-05-10T21:04:14.585Z,81.24
2023-05-10T21:06:44.375Z,81.32
2023-05-10T21:09:12.199Z,81.28
2023-05-10T21:11:40.094Z,81.47
2023-05-10T21:14:09.100Z,81.32
2023-05-10T21:16:37.694Z,81.23
2023-05-10T21:19:05.727Z,81.62
2023-05-10T21:21:33.788Z,81.47
2023-05-10T21:24:01.739Z,81.66
2023-05-10T21:26:30.024Z,81.51
2023-05-10T21:28:58.014Z,81.56
2023-05-10T21:31:26.065Z,81.51
2023-05-10T21:33:53.987Z,81.34
2023-05-10T21:36:21.990Z,81.34
2023-05-10T21:38:51.765Z,81.23
2023-05-10T21:41:19.816Z,81.37
2023-05-10T21:43:47.752Z,81.70
2023-05-10T21:46:16.762Z,81.69
2023-05-10T21:48:44.746Z,81.56
2023-05-10T21:51:13.114Z,81.63
2023-05-10T21:53:41.734Z,81.75
2023-05-10T21:56:09.659Z,81.76
2023-05-10T21:58:37.837Z,81.79
2023-05-10T22:01:05.869Z,82.03
2023-05-10T22:03:34.001Z,82.09
2023-05-10T22:06:01.973Z,82.09
2023-05-10T22:08:29.916Z,82.32
2023-05-10T22:10:57.771Z,82.12
2023-05-10T22:13:25.736Z,82.17
2023-05-10T22:15:53.749Z,82.26
2023-05-10T22:18:22.386Z,82.30
2023-05-10T22:20:50.279Z,82.42
2023-05-10T22:23:18.342Z,82.79
2023-05-10T22:25:46.161Z,83.17
2023-05-10T22:28:14.176Z,83.46
2023-05-10T22:30:44.128Z,83.40
2023-05-10T22:33:12.112Z,83.56
2023-05-10T22:35:40.184Z,83.66
2023-05-10T22:38:08.166Z,84.27
2023-05-10T22:40:36.128Z,84.09
2023-05-10T22:43:04.026Z,84.44
2023-05-10T22:45:32.044Z,84.54
2023-05-10T22:48:01.106Z,84.56
2023-05-10T22:50:31.011Z,84.58
2023-05-10T22:52:58.870Z,85.43
2023-05-10T22:55:26.953Z,85.11
2023-05-10T22:57:55.239Z,84.90
2023-05-10T23:00:24.429Z,84.98
2023-05-10T23:02:53.047Z,84.92
2023-05-10T23:05:21.200Z,85.05
2023-05-10T23:07:54.238Z,85.04
2023-05-10T23:10:22.392Z,84.84
2023-05-10T23:12:50.347Z,84.61
2023-05-10T23:15:18.281Z,84.69
2023-05-10T23:17:46.314Z,84.74
2023-05-10T23:20:14.693Z,84.62
2023-05-10T23:22:42.624Z,84.53
2023-05-10T23:25:11.155Z,84.59
2023-05-10T23:27:39.069Z,84.67
2023-05-10T23:30:07.593Z,84.48
2023-05-10T23:32:35.591Z,84.51
2023-05-10T23:35:03.523Z,84.57
2023-05-10T23:37:31.423Z,84.41
2023-05-10T23:39:59.399Z,84.31
2023-05-10T23:42:27.350Z,84.21
2023-05-10T23:44:55.322Z,83.99
2023-05-10T23:47:23.203Z,83.95
2023-05-10T23:49:51.595Z,83.75
2023-05-10T23:52:19.558Z,83.75
2023-05-10T23:54:47.519Z,83.42
2023-05-10T23:57:15.787Z,83.61
2023-05-10T23:59:43.788Z,83.82
